createdAt,value
2019-02-09T00:00:54.658Z,996.33
2019-02-09T00:01:54.644Z,996.41
2019-02-09T00:02:54.633Z,996.54
2019-02-09T00:03:54.624Z,996.64
2019-02-09T00:04:54.644Z,996.39
2019-02-09T00:05:54.602Z,996.44
2019-02-09T00:06:54.590Z,996.29
2019-02-09T00:07:54.578Z,996.22
2019-02-09T00:08:54.569Z,996.30
2019-02-09T00:09:54.578Z,996.22
2019-02-09T00:10:54.545Z,996.25
2019-02-09T00:11:54.535Z,996.24
2019-02-09T00:12:54.525Z,996.27
2019-02-09T00:13:54.522Z,996.40
2019-02-09T00:14:54.541Z,996.32
2019-02-09T00:15:54.490Z,996.26
2019-02-09T00:16:54.479Z,996.21
2019-02-09T00:17:54.468Z,996.25
2019-02-09T00:18:54.464Z,996.27
2019-02-09T00:19:54.447Z,996.25
2019-02-09T00:20:54.458Z,996.23
2019-02-09T00:21:54.423Z,996.17
2019-02-09T00:22:54.415Z,996.17
2019-02-09T00:23:54.402Z,996.06
2019-02-09T00:24:54.394Z,996.22
2019-02-09T00:25:54.404Z,996.18
2019-02-09T00:26:54.370Z,996.13
2019-02-09T00:27:54.358Z,996.14
2019-02-09T00:28:54.348Z,996.13
2019-02-09T00:29:54.338Z,996.09
2019-02-09T00:30:54.347Z,996.14
2019-02-09T00:31:54.316Z,996.05
2019-02-09T00:32:54.304Z,996.05
2019-02-09T00:33:54.293Z,996.08
2019-02-09T00:34:54.288Z,995.90
2019-02-09T00:35:54.290Z,995.96
2019-02-09T00:36:54.262Z,996.00
2019-02-09T00:37:54.253Z,995.87
2019-02-09T00:38:54.241Z,995.90
2019-02-09T00:39:54.230Z,996.04
2019-02-09T00:40:54.239Z,995.80
2019-02-09T00:41:54.209Z,995.80
2019-02-09T00:42:54.194Z,995.78
2019-02-09T00:43:54.184Z,995.72
2019-02-09T00:44:54.178Z,995.93
2019-02-09T00:45:54.186Z,995.79
2019-02-09T00:46:54.149Z,995.67
2019-02-09T00:47:54.140Z,995.71
2019-02-09T00:48:54.131Z,995.84
2019-02-09T00:49:54.116Z,995.78
2019-02-09T00:50:54.134Z,995.77
2019-02-09T00:52:02.472Z,995.62
2019-02-09T00:52:54.082Z,995.60
2019-02-09T00:53:54.073Z,995.70
2019-02-09T00:54:54.063Z,995.69
2019-02-09T00:55:54.069Z,995.62
2019-02-09T00:57:02.587Z,995.60
2019-02-09T00:57:54.032Z,995.46
2019-02-09T00:58:54.017Z,995.72
2019-02-09T00:59:54.512Z,995.64
2019-02-09T01:00:54.017Z,995.70
2019-02-09T01:01:53.986Z,995.63
2019-02-09T01:02:53.979Z,995.54
2019-02-09T01:03:53.989Z,995.66
2019-02-09T01:05:02.335Z,995.65
2019-02-09T01:05:53.979Z,995.57
2019-02-09T01:06:53.929Z,995.65
2019-02-09T01:07:53.921Z,995.65
2019-02-09T01:08:53.912Z,995.61
2019-02-09T01:09:53.899Z,995.61
2019-02-09T01:10:53.908Z,995.74
2019-02-09T01:11:53.969Z,995.76
2019-02-09T01:12:53.877Z,995.58
2019-02-09T01:13:54.027Z,995.55
2019-02-09T01:14:53.845Z,995.48
2019-02-09T01:15:53.851Z,995.53
2019-02-09T01:16:53.819Z,995.57
2019-02-09T01:17:53.815Z,995.47
2019-02-09T01:18:53.802Z,995.37
2019-02-09T01:19:53.868Z,995.33
2019-02-09T01:20:53.853Z,995.39
2019-02-09T01:21:53.772Z,995.42
2019-02-09T01:22:53.761Z,995.41
2019-02-09T01:23:53.749Z,995.38
2019-02-09T01:24:53.732Z,995.35
2019-02-09T01:25:53.744Z,995.33
2019-02-09T01:27:02.313Z,995.41
2019-02-09T01:27:53.698Z,995.47
2019-02-09T01:28:53.689Z,995.25
2019-02-09T01:29:53.677Z,995.26
2019-02-09T01:30:53.684Z,995.27
2019-02-09T01:31:53.660Z,995.30
2019-02-09T01:32:53.646Z,995.45
2019-02-09T01:33:53.633Z,995.22
2019-02-09T01:34:53.622Z,995.20
2019-02-09T01:35:53.634Z,995.25
2019-02-09T01:36:53.604Z,995.41
2019-02-09T01:37:53.589Z,995.48
2019-02-09T01:38:53.577Z,995.51
2019-02-09T01:39:53.567Z,995.33
2019-02-09T01:40:53.574Z,995.32
2019-02-09T01:41:53.544Z,995.34
2019-02-09T01:42:53.537Z,995.22
2019-02-09T01:43:53.524Z,995.37
2019-02-09T01:44:53.511Z,995.23
2019-02-09T01:45:53.524Z,995.12
2019-02-09T01:46:53.492Z,995.31
2019-02-09T01:47:53.484Z,995.29
2019-02-09T01:48:53.468Z,995.28
2019-02-09T01:49:53.460Z,995.33
2019-02-09T01:50:53.465Z,995.17
2019-02-09T01:51:53.435Z,995.13
2019-02-09T01:52:53.424Z,995.17
2019-02-09T01:53:53.412Z,995.15
2019-02-09T01:54:53.403Z,995.03
2019-02-09T01:55:53.426Z,995.10
2019-02-09T01:56:53.380Z,995.07
2019-02-09T01:57:53.375Z,995.15
2019-02-09T01:58:53.356Z,995.13
2019-02-09T01:59:53.349Z,995.18
2019-02-09T02:00:53.339Z,995.13
2019-02-09T02:01:53.345Z,995.19
2019-02-09T02:02:53.313Z,995.15
2019-02-09T02:03:53.304Z,995.15
2019-02-09T02:04:53.292Z,995.11
2019-02-09T02:05:53.281Z,995.11
2019-02-09T02:06:53.288Z,995.07
2019-02-09T02:07:53.260Z,994.99
2019-02-09T02:08:53.250Z,994.91
2019-02-09T02:09:53.238Z,994.99
2019-02-09T02:11:03.013Z,994.86
2019-02-09T02:11:53.216Z,994.88
2019-02-09T02:12:53.208Z,994.89
2019-02-09T02:13:53.202Z,994.79
2019-02-09T02:14:53.184Z,994.78
2019-02-09T02:15:53.189Z,994.68
2019-02-09T02:16:53.219Z,994.73
2019-02-09T02:17:53.149Z,994.64
2019-02-09T02:18:53.143Z,994.78
2019-02-09T02:19:53.126Z,994.59
2019-02-09T02:20:53.140Z,994.63
2019-02-09T02:22:02.494Z,994.60
2019-02-09T02:22:53.097Z,994.61
2019-02-09T02:23:53.082Z,994.60
2019-02-09T02:24:53.074Z,994.58
2019-02-09T02:25:53.084Z,994.66
2019-02-09T02:26:53.075Z,995.07
2019-02-09T02:27:53.040Z,994.64
2019-02-09T02:28:53.027Z,994.67
2019-02-09T02:29:53.018Z,994.57
2019-02-09T02:30:53.005Z,994.67
2019-02-09T02:31:53.022Z,994.68
2019-02-09T02:32:52.987Z,994.68
2019-02-09T02:33:52.975Z,994.84
2019-02-09T02:34:52.963Z,994.67
2019-02-09T02:35:52.951Z,994.70
2019-02-09T02:36:52.960Z,994.77
2019-02-09T02:38:02.385Z,994.94
2019-02-09T02:38:52.953Z,994.69
2019-02-09T02:39:52.907Z,994.71
2019-02-09T02:40:52.941Z,994.63
2019-02-09T02:42:01.737Z,994.71
2019-02-09T02:42:52.876Z,994.71
2019-02-09T02:43:52.865Z,994.65
2019-02-09T02:44:52.856Z,994.70
2019-02-09T02:45:52.840Z,994.67
2019-02-09T02:46:52.851Z,994.69
2019-02-09T02:47:52.820Z,994.67
2019-02-09T02:48:52.808Z,994.68
2019-02-09T02:49:52.812Z,994.73
2019-02-09T02:50:52.786Z,994.76
2019-02-09T02:51:52.797Z,994.86
2019-02-09T02:53:02.227Z,994.93
2019-02-09T02:53:52.756Z,994.83
2019-02-09T02:54:52.778Z,994.89
2019-02-09T02:55:52.733Z,995.04
2019-02-09T02:56:52.800Z,995.14
2019-02-09T02:57:52.710Z,995.02
2019-02-09T02:58:52.703Z,995.25
2019-02-09T02:59:52.702Z,995.33
2019-02-09T03:00:52.679Z,995.38
2019-02-09T03:01:52.684Z,995.39
2019-02-09T03:02:52.655Z,995.45
2019-02-09T03:03:52.643Z,995.36
2019-02-09T03:04:52.633Z,995.48
2019-02-09T03:05:52.621Z,995.45
2019-02-09T03:06:52.632Z,995.41
2019-02-09T03:07:52.600Z,995.39
2019-02-09T03:08:52.593Z,995.33
2019-02-09T03:09:52.585Z,995.38
2019-02-09T03:10:52.567Z,995.47
2019-02-09T03:11:52.574Z,995.70
2019-02-09T03:12:52.575Z,995.55
2019-02-09T03:13:52.537Z,995.54
2019-02-09T03:14:52.600Z,995.48
2019-02-09T03:15:52.519Z,995.44
2019-02-09T03:17:00.943Z,995.51
2019-02-09T03:17:52.502Z,995.53
2019-02-09T03:18:52.481Z,995.51
2019-02-09T03:19:52.466Z,995.39
2019-02-09T03:20:52.464Z,995.42
2019-02-09T03:21:52.464Z,995.36
2019-02-09T03:22:52.438Z,995.27
2019-02-09T03:23:52.423Z,995.29
2019-02-09T03:24:52.417Z,995.20
2019-02-09T03:25:52.402Z,995.08
2019-02-09T03:26:52.410Z,994.91
2019-02-09T03:27:52.383Z,994.91
2019-02-09T03:28:52.369Z,994.87
2019-02-09T03:29:52.356Z,994.99
2019-02-09T03:30:52.347Z,995.25
2019-02-09T03:31:52.355Z,995.33
2019-02-09T03:32:52.327Z,995.34
2019-02-09T03:33:52.314Z,995.31
2019-02-09T03:34:52.310Z,995.34
2019-02-09T03:35:52.295Z,995.34
2019-02-09T03:36:52.300Z,995.31
2019-02-09T03:37:52.271Z,995.35
2019-02-09T03:38:52.258Z,995.39
2019-02-09T03:39:52.247Z,995.41
2019-02-09T03:40:52.258Z,995.46
2019-02-09T03:41:52.255Z,995.47
2019-02-09T03:42:52.214Z,995.49
2019-02-09T03:43:52.206Z,995.49
2019-02-09T03:44:52.193Z,995.50
2019-02-09T03:45:52.185Z,995.52
2019-02-09T03:46:52.170Z,995.53
2019-02-09T03:47:52.178Z,995.57
2019-02-09T03:48:53.980Z,995.56
2019-02-09T03:49:52.138Z,995.56
2019-02-09T03:50:52.133Z,995.61
2019-02-09T03:51:52.114Z,995.60
2019-02-09T03:52:52.133Z,995.63
2019-02-09T03:53:52.094Z,995.66
2019-02-09T03:54:52.087Z,995.67
2019-02-09T03:55:52.073Z,995.74
2019-02-09T03:56:52.059Z,995.72
2019-02-09T03:57:52.067Z,995.76
2019-02-09T03:58:52.045Z,995.81
2019-02-09T03:59:52.030Z,995.76
2019-02-09T04:00:55.546Z,995.88
2019-02-09T04:01:52.012Z,995.89
2019-02-09T04:02:52.018Z,995.92
2019-02-09T04:03:51.988Z,995.90
2019-02-09T04:04:51.973Z,995.94
2019-02-09T04:05:51.962Z,995.92
2019-02-09T04:06:51.951Z,995.90
2019-02-09T04:07:51.963Z,995.87
2019-02-09T04:08:51.931Z,995.89
2019-02-09T04:09:51.918Z,995.88
2019-02-09T04:10:51.908Z,995.85
2019-02-09T04:11:51.895Z,995.82
2019-02-09T04:12:51.903Z,995.85
2019-02-09T04:13:51.873Z,995.91
2019-02-09T04:14:51.864Z,995.88
2019-02-09T04:15:51.859Z,995.89
2019-02-09T04:16:51.841Z,995.92
2019-02-09T04:17:51.849Z,995.93
2019-02-09T04:18:51.820Z,995.93
2019-02-09T04:19:51.808Z,995.92
2019-02-09T04:20:51.796Z,995.91
2019-02-09T04:21:51.785Z,995.96
2019-02-09T04:22:51.794Z,995.99
2019-02-09T04:23:51.764Z,995.95
2019-02-09T04:24:51.753Z,996.00
2019-02-09T04:25:51.744Z,995.96
2019-02-09T04:26:51.741Z,995.97
2019-02-09T04:27:51.750Z,995.91
2019-02-09T04:28:51.710Z,995.96
2019-02-09T04:29:51.697Z,996.05
2019-02-09T04:30:51.690Z,996.04
2019-02-09T04:31:51.676Z,996.08
2019-02-09T04:32:51.685Z,996.13
2019-02-09T04:33:51.655Z,996.16
2019-02-09T04:34:51.649Z,996.21
2019-02-09T04:35:51.636Z,996.23
2019-02-09T04:36:51.621Z,996.18
2019-02-09T04:37:51.632Z,996.19
2019-02-09T04:38:51.599Z,996.18
2019-02-09T04:39:51.591Z,996.18
2019-02-09T04:40:51.580Z,996.16
2019-02-09T04:41:51.566Z,996.20
2019-02-09T04:42:51.575Z,996.20
2019-02-09T04:43:51.550Z,996.18
2019-02-09T04:44:51.534Z,996.15
2019-02-09T04:45:51.525Z,996.10
2019-02-09T04:46:51.512Z,996.09
2019-02-09T04:47:51.520Z,996.13
2019-02-09T04:48:51.489Z,996.08
2019-02-09T04:49:51.479Z,996.18
2019-02-09T04:50:51.473Z,996.24
2019-02-09T04:51:51.462Z,996.34
2019-02-09T04:52:51.466Z,996.31
2019-02-09T04:53:51.434Z,996.34
2019-02-09T04:54:51.425Z,996.32
2019-02-09T04:55:51.416Z,996.35
2019-02-09T04:56:51.402Z,996.36
2019-02-09T04:57:51.410Z,996.41
2019-02-09T04:58:51.380Z,996.46
2019-02-09T04:59:51.368Z,996.45
2019-02-09T05:00:51.359Z,996.42
2019-02-09T05:01:51.346Z,996.48
2019-02-09T05:02:51.355Z,996.49
2019-02-09T05:03:51.329Z,996.52
2019-02-09T05:04:51.317Z,996.55
2019-02-09T05:05:51.306Z,996.58
2019-02-09T05:06:51.295Z,996.57
2019-02-09T05:07:51.300Z,996.55
2019-02-09T05:08:51.273Z,996.62
2019-02-09T05:09:51.263Z,996.68
2019-02-09T05:10:51.255Z,996.64
2019-02-09T05:11:51.238Z,996.71
2019-02-09T05:12:51.249Z,996.73
2019-02-09T05:13:51.217Z,996.72
2019-02-09T05:14:51.205Z,996.71
2019-02-09T05:15:51.193Z,996.72
2019-02-09T05:16:51.184Z,996.69
2019-02-09T05:17:51.191Z,996.78
2019-02-09T05:18:51.161Z,996.77
2019-02-09T05:19:51.148Z,996.72
2019-02-09T05:20:51.138Z,996.78
2019-02-09T05:22:00.605Z,996.86
2019-02-09T05:22:51.151Z,996.83
2019-02-09T05:23:51.323Z,996.90
2019-02-09T05:24:51.093Z,996.80
2019-02-09T05:25:51.082Z,996.80
2019-02-09T05:26:51.075Z,996.83
2019-02-09T05:27:51.060Z,996.81
2019-02-09T05:28:51.076Z,996.85
2019-02-09T05:29:51.041Z,996.93
2019-02-09T05:30:51.029Z,996.91
2019-02-09T05:31:51.026Z,996.99
2019-02-09T05:32:51.022Z,997.02
2019-02-09T05:33:51.015Z,997.02
2019-02-09T05:34:50.984Z,996.98
2019-02-09T05:35:50.975Z,996.94
2019-02-09T05:36:50.962Z,996.99
2019-02-09T05:37:50.950Z,997.03
2019-02-09T05:38:50.960Z,996.98
2019-02-09T05:39:50.931Z,997.01
2019-02-09T05:40:50.922Z,997.05
2019-02-09T05:41:50.910Z,997.08
2019-02-09T05:42:50.902Z,997.08
2019-02-09T05:43:50.904Z,997.07
2019-02-09T05:44:50.875Z,997.11
2019-02-09T05:45:50.863Z,997.06
2019-02-09T05:46:50.853Z,997.09
2019-02-09T05:47:50.845Z,997.10
2019-02-09T05:48:50.853Z,997.00
2019-02-09T05:49:50.821Z,997.04
2019-02-09T05:50:50.852Z,996.99
2019-02-09T05:51:50.799Z,997.00
2019-02-09T05:52:50.839Z,997.07
2019-02-09T05:53:50.795Z,997.01
2019-02-09T05:54:50.765Z,997.15
2019-02-09T05:55:50.756Z,997.10
2019-02-09T05:56:50.744Z,997.11
2019-02-09T05:57:50.731Z,997.13
2019-02-09T05:58:50.745Z,997.14
2019-02-09T05:59:50.709Z,997.18
2019-02-09T06:00:50.707Z,997.19
2019-02-09T06:01:50.689Z,997.22
2019-02-09T06:02:50.682Z,997.26
2019-02-09T06:03:50.691Z,997.26
2019-02-09T06:04:50.659Z,997.47
2019-02-09T06:05:50.644Z,997.38
2019-02-09T06:06:50.635Z,997.39
2019-02-09T06:07:50.625Z,997.29
2019-02-09T06:08:50.637Z,997.39
2019-02-09T06:09:50.603Z,997.45
2019-02-09T06:10:50.588Z,997.47
2019-02-09T06:11:50.580Z,997.46
2019-02-09T06:12:50.569Z,997.47
2019-02-09T06:13:50.574Z,997.50
2019-02-09T06:14:50.552Z,997.50
2019-02-09T06:15:50.543Z,997.40
2019-02-09T06:16:50.524Z,997.51
2019-02-09T06:17:50.530Z,997.49
2019-02-09T06:18:50.522Z,997.43
2019-02-09T06:19:50.490Z,997.47
2019-02-09T06:20:50.479Z,997.48
2019-02-09T06:21:50.467Z,997.50
2019-02-09T06:22:50.459Z,997.40
2019-02-09T06:23:50.466Z,997.46
2019-02-09T06:24:50.445Z,997.44
2019-02-09T06:25:50.425Z,997.49
2019-02-09T06:26:50.413Z,997.36
2019-02-09T06:27:50.414Z,997.51
2019-02-09T06:28:50.412Z,997.53
2019-02-09T06:29:50.384Z,997.59
2019-02-09T06:30:50.370Z,997.56
2019-02-09T06:31:51.882Z,997.57
2019-02-09T06:32:50.356Z,997.63
2019-02-09T06:33:50.363Z,997.62
2019-02-09T06:34:50.325Z,997.67
2019-02-09T06:35:50.319Z,997.64
2019-02-09T06:36:50.315Z,997.72
2019-02-09T06:37:50.299Z,997.76
2019-02-09T06:38:50.309Z,997.74
2019-02-09T06:39:50.273Z,997.73
2019-02-09T06:40:50.263Z,997.73
2019-02-09T06:41:50.266Z,997.83
2019-02-09T06:42:50.239Z,997.85
2019-02-09T06:43:50.263Z,997.77
2019-02-09T06:44:50.217Z,997.81
2019-02-09T06:45:50.204Z,997.83
2019-02-09T06:46:50.195Z,997.83
2019-02-09T06:47:50.186Z,997.89
2019-02-09T06:48:50.193Z,997.93
2019-02-09T06:49:50.179Z,997.97
2019-02-09T06:50:50.154Z,997.84
2019-02-09T06:51:50.139Z,997.90
2019-02-09T06:52:50.130Z,997.90
2019-02-09T06:53:50.137Z,997.94
2019-02-09T06:54:50.107Z,997.99
2019-02-09T06:55:50.096Z,998.01
2019-02-09T06:56:50.085Z,998.02
2019-02-09T06:57:50.076Z,998.02
2019-02-09T06:58:50.085Z,997.96
2019-02-09T06:59:50.056Z,998.07
2019-02-09T07:00:50.041Z,998.10
2019-02-09T07:01:50.030Z,998.12
2019-02-09T07:02:50.024Z,998.13
2019-02-09T07:03:50.045Z,998.13
2019-02-09T07:04:49.998Z,998.19
2019-02-09T07:05:49.994Z,998.18
2019-02-09T07:06:49.976Z,998.21
2019-02-09T07:07:49.968Z,998.16
2019-02-09T07:08:49.953Z,998.19
2019-02-09T07:09:49.978Z,998.17
2019-02-09T07:10:49.931Z,998.27
2019-02-09T07:11:49.919Z,998.13
2019-02-09T07:12:49.908Z,998.21
2019-02-09T07:13:49.909Z,998.24
2019-02-09T07:14:49.910Z,998.29
2019-02-09T07:15:49.877Z,998.30
2019-02-09T07:16:49.866Z,998.27
2019-02-09T07:17:49.854Z,998.33
2019-02-09T07:18:49.844Z,998.33
2019-02-09T07:19:49.855Z,998.41
2019-02-09T07:20:49.821Z,998.42
2019-02-09T07:21:49.811Z,998.43
2019-02-09T07:22:49.803Z,998.41
2019-02-09T07:23:49.796Z,998.51
2019-02-09T07:24:49.798Z,998.53
2019-02-09T07:25:49.767Z,998.55
2019-02-09T07:26:49.755Z,998.54
2019-02-09T07:27:49.745Z,998.48
2019-02-09T07:28:49.735Z,998.53
2019-02-09T07:29:49.749Z,998.56
2019-02-09T07:30:49.715Z,998.57
2019-02-09T07:31:56.326Z,998.56
2019-02-09T07:32:49.691Z,998.58
2019-02-09T07:33:49.680Z,998.58
2019-02-09T07:34:49.688Z,998.61
2019-02-09T07:35:49.659Z,998.59
2019-02-09T07:36:49.645Z,998.66
2019-02-09T07:37:49.642Z,998.64
2019-02-09T07:38:49.625Z,998.69
2019-02-09T07:39:49.630Z,998.71
2019-02-09T07:40:49.605Z,998.69
2019-02-09T07:41:58.686Z,998.76
2019-02-09T07:42:49.599Z,998.74
2019-02-09T07:43:49.574Z,998.80
2019-02-09T07:44:49.586Z,998.80
2019-02-09T07:45:49.545Z,998.83
2019-02-09T07:46:49.535Z,998.80
2019-02-09T07:47:49.529Z,998.83
2019-02-09T07:48:49.515Z,998.93
2019-02-09T07:49:49.530Z,998.84
2019-02-09T07:50:49.505Z,998.83
2019-02-09T07:51:49.483Z,998.92
2019-02-09T07:52:49.477Z,998.82
2019-02-09T07:53:49.459Z,998.81
2019-02-09T07:54:49.466Z,998.87
2019-02-09T07:55:58.850Z,998.82
2019-02-09T07:56:49.424Z,998.87
2019-02-09T07:57:49.413Z,998.84
2019-02-09T07:58:49.403Z,998.85
2019-02-09T07:59:49.412Z,998.89
2019-02-09T08:00:57.833Z,998.90
2019-02-09T08:01:49.386Z,998.91
2019-02-09T08:02:49.359Z,998.96
2019-02-09T08:03:49.348Z,998.94
2019-02-09T08:04:49.355Z,998.96
2019-02-09T08:05:49.329Z,999.00
2019-02-09T08:06:49.317Z,998.92
2019-02-09T08:07:49.303Z,998.94
2019-02-09T08:08:49.300Z,998.93
2019-02-09T08:09:49.303Z,998.93
2019-02-09T08:10:49.270Z,999.06
2019-02-09T08:11:58.884Z,999.08
2019-02-09T08:12:49.253Z,999.09
2019-02-09T08:13:49.237Z,999.02
2019-02-09T08:14:49.247Z,999.06
2019-02-09T08:15:49.217Z,999.14
2019-02-09T08:16:49.208Z,999.13
2019-02-09T08:17:49.194Z,999.15
2019-02-09T08:18:49.183Z,999.34
2019-02-09T08:19:49.287Z,999.15
2019-02-09T08:20:49.166Z,999.18
2019-02-09T08:21:49.169Z,999.25
2019-02-09T08:22:49.141Z,999.16
2019-02-09T08:23:49.135Z,999.21
2019-02-09T08:24:49.140Z,999.20
2019-02-09T08:25:49.110Z,999.24
2019-02-09T08:26:49.096Z,999.21
2019-02-09T08:27:49.084Z,999.24
2019-02-09T08:28:49.101Z,999.29
2019-02-09T08:29:49.085Z,999.29
2019-02-09T08:30:49.053Z,999.26
2019-02-09T08:31:49.041Z,999.32
2019-02-09T08:32:49.032Z,999.31
2019-02-09T08:33:49.498Z,999.36
2019-02-09T08:34:49.298Z,999.37
2019-02-09T08:35:49.292Z,999.29
2019-02-09T08:36:49.141Z,999.39
2019-02-09T08:37:49.249Z,999.33
2019-02-09T08:38:49.015Z,999.40
2019-02-09T08:39:48.978Z,999.40
2019-02-09T08:40:48.941Z,999.37
2019-02-09T08:41:48.951Z,999.39
2019-02-09T08:42:48.918Z,999.49
2019-02-09T08:43:48.907Z,999.50
2019-02-09T08:44:48.923Z,999.35
2019-02-09T08:45:48.886Z,999.53
2019-02-09T08:46:48.880Z,999.46
2019-02-09T08:47:48.868Z,999.50
2019-02-09T08:48:48.856Z,999.52
2019-02-09T08:49:48.886Z,999.59
2019-02-09T08:50:48.830Z,999.48
2019-02-09T08:51:48.819Z,999.44
2019-02-09T08:52:48.809Z,999.47
2019-02-09T08:53:48.800Z,999.46
2019-02-09T08:54:48.788Z,999.45
2019-02-09T08:55:48.797Z,999.44
2019-02-09T08:56:48.767Z,999.47
2019-02-09T08:57:48.754Z,999.48
2019-02-09T08:58:48.742Z,999.35
2019-02-09T08:59:48.741Z,999.56
2019-02-09T09:00:48.752Z,999.55
2019-02-09T09:01:48.714Z,999.64
2019-02-09T09:02:48.699Z,999.63
2019-02-09T09:03:48.735Z,999.47
2019-02-09T09:04:48.678Z,999.61
2019-02-09T09:05:48.687Z,999.57
2019-02-09T09:06:48.666Z,999.55
2019-02-09T09:07:48.645Z,999.59
2019-02-09T09:08:48.634Z,999.63
2019-02-09T09:09:49.584Z,999.54
2019-02-09T09:10:48.630Z,999.66
2019-02-09T09:11:48.602Z,999.57
2019-02-09T09:12:48.587Z,999.61
2019-02-09T09:13:48.578Z,999.55
2019-02-09T09:14:48.567Z,999.63
2019-02-09T09:15:48.581Z,999.65
2019-02-09T09:16:48.551Z,999.59
2019-02-09T09:17:56.827Z,999.62
2019-02-09T09:18:48.523Z,999.65
2019-02-09T09:19:48.513Z,999.65
2019-02-09T09:20:48.519Z,999.69
2019-02-09T09:21:48.490Z,999.67
2019-02-09T09:22:48.482Z,999.61
2019-02-09T09:23:48.470Z,999.62
2019-02-09T09:24:48.459Z,999.76
2019-02-09T09:25:56.803Z,999.66
2019-02-09T09:26:48.453Z,999.66
2019-02-09T09:27:48.426Z,999.78
2019-02-09T09:28:48.414Z,999.72
2019-02-09T09:29:48.400Z,999.72
2019-02-09T09:30:48.423Z,999.85
2019-02-09T09:31:48.875Z,999.77
2019-02-09T09:32:58.930Z,999.91
2019-02-09T09:33:48.359Z,999.90
2019-02-09T09:34:48.348Z,999.83
2019-02-09T09:35:48.355Z,999.80
2019-02-09T09:36:48.328Z,999.84
2019-02-09T09:37:48.316Z,999.77
2019-02-09T09:38:48.306Z,999.87
2019-02-09T09:39:48.303Z,999.75
2019-02-09T09:40:48.301Z,999.85
2019-02-09T09:41:48.269Z,999.92
2019-02-09T09:42:48.259Z,999.87
2019-02-09T09:43:48.249Z,999.95
2019-02-09T09:44:48.237Z,999.95
2019-02-09T09:45:48.248Z,999.95
2019-02-09T09:46:48.215Z,1000.05
2019-02-09T09:47:48.206Z,999.99
2019-02-09T09:48:48.199Z,999.93
2019-02-09T09:49:48.181Z,999.95
2019-02-09T09:50:48.195Z,999.97
2019-02-09T09:51:48.169Z,1000.03
2019-02-09T09:52:48.150Z,1000.03
2019-02-09T09:53:56.486Z,1000.19
2019-02-09T09:54:48.138Z,1000.04
2019-02-09T09:55:48.159Z,1000.08
2019-02-09T09:56:48.107Z,1000.07
2019-02-09T09:57:48.095Z,1000.06
2019-02-09T09:58:48.082Z,999.97
2019-02-09T09:59:48.074Z,1000.01
2019-02-09T10:00:48.096Z,1000.00
2019-02-09T10:01:48.053Z,1000.00
2019-02-09T10:02:48.045Z,1000.04
2019-02-09T10:03:48.045Z,1000.06
2019-02-09T10:04:48.020Z,999.97
2019-02-09T10:05:48.036Z,1000.10
2019-02-09T10:06:47.997Z,1000.15
2019-02-09T10:07:47.987Z,1000.08
2019-02-09T10:08:48.036Z,1000.15
2019-02-09T10:09:47.966Z,1000.25
2019-02-09T10:10:47.971Z,1000.32
2019-02-09T10:11:47.945Z,1000.21
2019-02-09T10:12:47.932Z,1000.12
2019-02-09T10:13:47.920Z,1000.12
2019-02-09T10:14:47.916Z,1000.14
2019-02-09T10:15:47.929Z,1000.17
2019-02-09T10:16:48.176Z,1000.16
2019-02-09T10:17:48.130Z,1000.40
2019-02-09T10:18:47.881Z,1000.23
2019-02-09T10:19:47.856Z,1000.30
2019-02-09T10:20:47.870Z,1000.28
2019-02-09T10:21:56.575Z,1000.30
2019-02-09T10:22:47.826Z,1000.28
2019-02-09T10:23:47.815Z,1000.26
2019-02-09T10:24:47.802Z,1000.32
2019-02-09T10:25:47.808Z,1000.31
2019-02-09T10:26:47.780Z,1000.34
2019-02-09T10:27:47.768Z,1000.31
2019-02-09T10:28:56.530Z,1000.41
2019-02-09T10:29:47.748Z,1000.27
2019-02-09T10:30:47.786Z,1000.35
2019-02-09T10:31:47.726Z,1000.30
2019-02-09T10:32:56.805Z,1000.29
2019-02-09T10:33:47.703Z,1000.42
2019-02-09T10:34:47.691Z,1000.43
2019-02-09T10:35:47.679Z,1000.41
2019-02-09T10:36:47.692Z,1000.38
2019-02-09T10:37:47.800Z,1000.31
2019-02-09T10:38:47.659Z,1000.47
2019-02-09T10:39:47.639Z,1000.33
2019-02-09T10:40:47.639Z,1000.40
2019-02-09T10:41:47.706Z,1000.35
2019-02-09T10:42:56.617Z,1000.40
2019-02-09T10:43:47.595Z,1000.35
2019-02-09T10:44:47.580Z,1000.63
2019-02-09T10:45:47.571Z,1000.50
2019-02-09T10:46:56.092Z,1000.40
2019-02-09T10:47:47.549Z,1000.44
2019-02-09T10:48:47.538Z,1000.43
2019-02-09T10:49:47.532Z,1000.46
2019-02-09T10:50:47.519Z,1000.46
2019-02-09T10:51:47.525Z,1000.41
2019-02-09T10:52:47.497Z,1000.44
2019-02-09T10:53:47.484Z,1000.50
2019-02-09T10:54:47.470Z,1000.50
2019-02-09T10:55:47.504Z,1000.41
2019-02-09T10:56:47.469Z,1000.34
2019-02-09T10:57:47.437Z,1000.50
2019-02-09T10:58:47.434Z,1000.39
2019-02-09T10:59:47.416Z,1000.48
2019-02-09T11:00:47.408Z,1000.56
2019-02-09T11:01:47.421Z,1000.61
2019-02-09T11:02:52.023Z,1000.76
2019-02-09T11:03:47.509Z,1000.74
2019-02-09T11:04:47.360Z,1000.60
2019-02-09T11:05:47.351Z,1000.49
2019-02-09T11:06:47.358Z,1000.59
2019-02-09T11:07:47.326Z,1000.55
2019-02-09T11:08:47.316Z,1000.51
2019-02-09T11:09:47.304Z,1000.56
2019-02-09T11:10:47.301Z,1000.49
2019-02-09T11:11:47.313Z,1000.60
2019-02-09T11:12:47.274Z,1000.66
2019-02-09T11:13:47.261Z,1000.54
2019-02-09T11:14:47.252Z,1000.55
2019-02-09T11:15:47.238Z,1000.43
2019-02-09T11:16:47.252Z,1000.36
2019-02-09T11:17:47.221Z,1000.43
2019-02-09T11:18:47.204Z,1000.37
2019-02-09T11:19:47.207Z,1000.45
2019-02-09T11:20:47.186Z,1000.34
2019-02-09T11:21:47.228Z,1000.35
2019-02-09T11:22:47.161Z,1000.66
2019-02-09T11:23:47.163Z,1000.30
2019-02-09T11:24:47.138Z,1000.37
2019-02-09T11:25:47.129Z,1000.41
2019-02-09T11:26:47.138Z,1000.42
2019-02-09T11:27:47.107Z,1000.37
2019-02-09T11:28:47.096Z,1000.60
2019-02-09T11:29:47.086Z,1000.57
2019-02-09T11:30:47.075Z,1000.44
2019-02-09T11:31:47.084Z,1000.54
2019-02-09T11:32:47.060Z,1000.53
2019-02-09T11:33:47.048Z,1000.59
2019-02-09T11:34:47.030Z,1000.72
2019-02-09T11:35:47.028Z,1000.44
2019-02-09T11:36:47.039Z,1000.45
2019-02-09T11:37:46.999Z,1000.42
2019-02-09T11:38:46.984Z,1000.56
2019-02-09T11:39:46.973Z,1000.41
2019-02-09T11:40:46.961Z,1000.48
2019-02-09T11:41:46.972Z,1000.39
2019-02-09T11:42:46.940Z,1000.43
2019-02-09T11:43:46.934Z,1000.49
2019-02-09T11:44:46.918Z,1000.49
2019-02-09T11:45:46.919Z,1000.39
2019-02-09T11:46:46.917Z,1000.33
2019-02-09T11:47:46.885Z,1000.42
2019-02-09T11:48:46.873Z,1000.52
2019-02-09T11:49:46.867Z,1000.63
2019-02-09T11:50:47.276Z,1000.30
2019-02-09T11:51:46.909Z,1000.41
2019-02-09T11:52:46.829Z,1000.41
2019-02-09T11:53:46.821Z,1000.42
2019-02-09T11:54:46.808Z,1000.26
2019-02-09T11:55:46.795Z,1000.33
2019-02-09T11:56:46.810Z,1000.46
2019-02-09T11:57:46.775Z,1000.42
2019-02-09T11:58:46.764Z,1000.42
2019-02-09T11:59:46.753Z,1000.54
2019-02-09T12:00:46.820Z,1000.39
2019-02-09T12:01:55.090Z,1000.50
2019-02-09T12:02:46.736Z,1000.49
2019-02-09T12:03:46.708Z,1000.41
2019-02-09T12:04:46.699Z,1000.50
2019-02-09T12:05:46.696Z,1000.46
2019-02-09T12:06:47.943Z,1000.49
2019-02-09T12:07:46.663Z,1000.46
2019-02-09T12:08:46.652Z,1000.50
2019-02-09T12:09:46.643Z,1000.61
2019-02-09T12:10:46.635Z,1000.61
2019-02-09T12:11:46.640Z,1000.47
2019-02-09T12:12:46.608Z,1000.42
2019-02-09T12:13:46.596Z,1000.44
2019-02-09T12:14:46.586Z,1000.35
2019-02-09T12:15:55.566Z,1000.49
2019-02-09T12:16:46.570Z,1000.46
2019-02-09T12:17:46.577Z,1000.38
2019-02-09T12:18:46.541Z,1000.42
2019-02-09T12:19:46.529Z,1000.40
2019-02-09T12:20:46.520Z,1000.41
2019-02-09T12:21:46.510Z,1000.41
2019-02-09T12:22:46.517Z,1000.35
2019-02-09T12:23:46.487Z,1000.35